Time,TemperatureF,DewpointF,PressureIn,WindDirection,WindDirectionDegrees,WindSpeedMPH,WindSpeedGustMPH,Humidity,HourlyPrecipIn,Conditions,Clouds,dailyrainin,SolarRadiationWatts/m^2,SoftwareType,DateUTC
2013-08-15 00:01:00,72.0,54.0,-100.00,SW,225,4.0,10.0,53,0.00,,,0.00,1.000000,,2013-08-15 07:01:00,
2013-08-15 00:42:00,72.0,55.0,-100.00,SW,229,5.0,9.0,56,0.00,,,0.00,1.000000,,2013-08-15 07:42:00,
2013-08-15 00:52:00,72.0,55.0,-100.00,SW,229,5.0,9.0,56,0.00,,,0.00,1.000000,,2013-08-15 07:52:00,
2013-08-15 01:02:00,72.0,55.0,-100.00,SW,229,5.0,9.0,56,0.00,,,0.00,1.000000,,2013-08-15 08:02:00,
2013-08-15 01:42:00,70.0,55.0,-100.00,SW,225,4.0,10.0,60,0.00,,,0.00,1.000000,,2013-08-15 08:42:00,
2013-08-15 01:52:00,70.0,55.0,-100.00,SW,225,4.0,10.0,60,0.00,,,0.00,1.000000,,2013-08-15 08:52:00,
2013-08-15 02:01:00,70.0,55.0,-100.00,SW,225,4.0,10.0,60,0.00,,,0.00,1.000000,,2013-08-15 09:01:00,
2013-08-15 02:42:00,68.0,57.0,-100.00,South,170,1.0,5.0,67,0.00,,,0.00,1.000000,,2013-08-15 09:42:00,
2013-08-15 02:53:00,68.0,57.0,-100.00,South,170,1.0,5.0,67,0.00,,,0.00,1.000000,,2013-08-15 09:53:00,
2013-08-15 03:03:00,68.0,57.0,-100.00,South,170,1.0,5.0,67,0.00,,,0.00,1.000000,,2013-08-15 10:03:00,
2013-08-15 03:42:00,69.0,58.0,-100.00,SW,226,5.0,9.0,67,0.00,,,-99.99,1.000000,,2013-08-15 10:42:00,
2013-08-15 03:52:00,69.0,58.0,-100.00,SW,226,5.0,9.0,67,0.00,,,-99.99,1.000000,,2013-08-15 10:52:00,
2013-08-15 04:02:00,69.0,58.0,-100.00,SW,226,5.0,9.0,67,0.00,,,-99.99,1.000000,,2013-08-15 11:02:00,
2013-08-15 04:42:00,68.0,55.0,-100.00,East,96,3.0,9.0,64,0.00,,,0.00,1.000000,,2013-08-15 11:42:00,
2013-08-15 04:52:00,68.0,55.0,-100.00,East,96,3.0,9.0,64,0.00,,,0.00,1.000000,,2013-08-15 11:52:00,
2013-08-15 05:01:00,68.0,55.0,-100.00,East,96,3.0,9.0,64,0.00,,,0.00,1.000000,,2013-08-15 12:01:00,
2013-08-15 05:42:00,65.0,56.0,-100.00,East,96,0.0,5.0,74,0.00,,,0.00,1.000000,,2013-08-15 12:42:00,
2013-08-15 05:52:00,65.0,56.0,-100.00,East,96,0.0,5.0,74,0.00,,,0.00,1.000000,,2013-08-15 12:52:00,
2013-08-15 06:01:00,65.0,56.0,-100.00,East,96,0.0,5.0,74,0.00,,,0.00,1.000000,,2013-08-15 13:01:00,
2013-08-15 06:42:00,65.0,57.0,-100.00,East,101,0.0,2.0,76,0.00,,,0.00,1.000000,,2013-08-15 13:42:00,
2013-08-15 06:52:00,65.0,57.0,-100.00,East,101,0.0,2.0,76,0.00,,,0.00,1.000000,,2013-08-15 13:52:00,
2013-08-15 07:01:00,65.0,57.0,-100.00,East,101,0.0,2.0,76,0.00,,,0.00,1.000000,,2013-08-15 14:01:00,
2013-08-15 07:46:00,66.0,58.0,-100.00,SW,219,0.0,0.0,75,0.00,,,0.00,18.000000,,2013-08-15 14:46:00,
2013-08-15 07:54:00,66.0,58.0,-100.00,SW,219,0.0,0.0,75,0.00,,,0.00,18.000000,,2013-08-15 14:54:00,
2013-08-15 08:43:00,70.0,59.0,-100.00,WSW,256,2.0,6.0,69,0.00,,,0.00,105.000000,,2013-08-15 15:43:00,
2013-08-15 08:54:00,70.0,59.0,-100.00,WSW,256,2.0,6.0,69,0.00,,,0.00,105.000000,,2013-08-15 15:54:00,
2013-08-15 09:03:00,70.0,59.0,-100.00,WSW,256,2.0,6.0,69,0.00,,,0.00,105.000000,,2013-08-15 16:03:00,
2013-08-15 09:44:00,75.0,60.0,-100.00,West,264,4.0,7.0,59,0.00,,,0.00,239.000000,,2013-08-15 16:44:00,
2013-08-15 09:55:00,75.0,60.0,-100.00,West,264,4.0,7.0,59,0.00,,,0.00,239.000000,,2013-08-15 16:55:00,
2013-08-15 10:06:00,75.0,60.0,-100.00,West,264,4.0,7.0,59,0.00,,,0.00,239.000000,,2013-08-15 17:06:00,
2013-08-15 10:08:00,78.0,59.0,-100.00,WSW,240,6.0,11.0,52,0.00,,,0.00,505.000000,,2013-08-15 17:08:00,
2013-08-15 10:55:00,78.0,59.0,-100.00,WSW,240,6.0,11.0,52,0.00,,,0.00,505.000000,,2013-08-15 17:55:00,
2013-08-15 11:00:00,-999.0,-99.9,-100.00,WSW,240,6.0,11.0,-999,-99.99,,,-99.99,505.000000,,2013-08-15 18:00:00,
2013-08-15 11:08:00,80.0,60.0,-100.00,West,263,5.0,10.0,50,0.00,,,0.00,641.000000,,2013-08-15 18:08:00,
2013-08-15 11:40:00,-999.0,-99.9,-100.00,West,263,5.0,10.0,50,0.00,,,0.00,641.000000,,2013-08-15 18:40:00,
2013-08-15 11:49:00,80.0,60.0,-100.00,West,263,5.0,10.0,50,0.00,,,0.00,641.000000,,2013-08-15 18:49:00,
2013-08-15 12:06:00,-999.0,-99.9,-100.00,West,263,5.0,10.0,-999,0.00,,,0.00,641.000000,,2013-08-15 19:06:00,
2013-08-15 12:08:00,83.0,59.0,-100.00,WSW,240,5.0,13.0,44,0.00,,,0.00,637.000000,,2013-08-15 19:08:00,
2013-08-15 12:34:00,-999.0,-99.9,-100.00,WSW,240,5.0,13.0,-999,-99.99,,,-99.99,637.000000,,2013-08-15 19:34:00,
2013-08-15 12:49:00,83.0,59.0,-100.00,WSW,240,5.0,13.0,44,0.00,,,0.00,637.000000,,2013-08-15 19:49:00,
2013-08-15 13:45:00,83.0,57.0,-100.00,SW,234,8.0,15.0,41,0.00,,,0.00,796.000000,,2013-08-15 20:45:00,
2013-08-15 13:56:00,83.0,57.0,-100.00,SW,234,8.0,15.0,41,0.00,,,0.00,796.000000,,2013-08-15 20:56:00,
2013-08-15 14:08:00,81.0,58.0,-100.00,WSW,241,7.0,15.0,45,0.00,,,0.00,420.000000,,2013-08-15 21:08:00,
2013-08-15 14:49:00,81.0,58.0,-100.00,WSW,241,7.0,15.0,45,0.00,,,0.00,420.000000,,2013-08-15 21:49:00,
2013-08-15 14:57:00,81.0,58.0,-100.00,WSW,241,7.0,15.0,45,0.00,,,0.00,420.000000,,2013-08-15 21:57:00,
2013-08-15 15:49:00,80.0,59.0,-100.00,SW,225,6.0,15.0,48,0.00,,,0.00,409.000000,,2013-08-15 22:49:00,
2013-08-15 15:58:00,80.0,59.0,-100.00,SW,225,6.0,15.0,48,0.00,,,0.00,409.000000,,2013-08-15 22:58:00,
2013-08-15 16:07:00,80.0,59.0,-100.00,SW,225,6.0,15.0,48,0.00,,,0.00,409.000000,,2013-08-15 23:07:00,
2013-08-15 16:08:00,80.0,61.0,-100.00,SW,217,5.0,14.0,52,0.00,,,0.00,205.000000,,2013-08-15 23:08:00,
2013-08-15 16:48:00,80.0,61.0,-100.00,SW,217,5.0,14.0,52,0.00,,,0.00,205.000000,,2013-08-15 23:48:00,
2013-08-15 16:55:00,80.0,61.0,-100.00,SW,217,5.0,14.0,52,0.00,,,0.00,205.000000,,2013-08-15 23:55:00,
2013-08-15 17:46:00,77.0,62.0,-100.00,SW,220,6.0,11.0,59,0.00,,,0.00,209.000000,,2013-08-16 00:46:00,
2013-08-15 17:52:00,77.0,62.0,-100.00,SW,220,6.0,11.0,59,0.00,,,0.00,209.000000,,2013-08-16 00:52:00,
2013-08-15 18:02:00,77.0,62.0,-100.00,SW,220,6.0,11.0,59,0.00,,,0.00,209.000000,,2013-08-16 01:02:00,
2013-08-15 18:43:00,-999.0,-99.9,-100.00,SW,229,5.0,-999.0,-999,-99.99,,,-99.99,,,2013-08-16 01:43:00,
2013-08-15 18:54:00,76.0,61.0,-100.00,SW,229,5.0,12.0,60,0.00,,,0.00,208.000000,,2013-08-16 01:54:00,
2013-08-15 19:02:00,76.0,61.0,-100.00,SW,229,5.0,12.0,60,0.00,,,0.00,208.000000,,2013-08-16 02:02:00,
2013-08-15 19:44:00,76.0,62.0,-100.00,SW,228,4.0,10.0,61,0.00,,,0.00,86.000000,,2013-08-16 02:44:00,
2013-08-15 19:52:00,76.0,62.0,-100.00,SW,228,4.0,10.0,61,0.00,,,0.00,86.000000,,2013-08-16 02:52:00,
2013-08-15 20:03:00,76.0,62.0,-100.00,SW,228,4.0,10.0,61,0.00,,,0.00,86.000000,,2013-08-16 03:03:00,
2013-08-15 20:43:00,73.0,62.0,-100.00,SSW,197,2.0,9.0,69,0.00,,,0.00,20.000000,,2013-08-16 03:43:00,
2013-08-15 20:53:00,73.0,62.0,-100.00,SSW,197,2.0,9.0,69,0.00,,,0.00,20.000000,,2013-08-16 03:53:00,
2013-08-15 21:03:00,73.0,62.0,-100.00,SSW,197,2.0,9.0,69,0.00,,,0.00,20.000000,,2013-08-16 04:03:00,
2013-08-15 21:42:00,72.0,62.0,-100.00,SW,217,3.0,6.0,72,0.00,,,0.00,2.000000,,2013-08-16 04:42:00,
2013-08-15 21:53:00,72.0,62.0,-100.00,SW,217,3.0,6.0,72,0.00,,,0.00,2.000000,,2013-08-16 04:53:00,
2013-08-15 22:02:00,72.0,62.0,-100.00,SW,217,3.0,6.0,72,0.00,,,0.00,2.000000,,2013-08-16 05:02:00,
2013-08-15 22:42:00,70.0,64.0,-100.00,SSW,209,1.0,5.0,80,0.00,,,0.00,1.000000,,2013-08-16 05:42:00,